createdAt,value
2019-06-07T00:01:38.965Z,101400.03
2019-06-07T00:04:08.308Z,101386.90
2019-06-07T00:06:32.582Z,101397.54
2019-06-07T00:08:58.444Z,101392.00
2019-06-07T00:11:24.318Z,101392.69
2019-06-07T00:13:50.182Z,101386.45
2019-06-07T00:16:20.822Z,101388.09
2019-06-07T00:18:43.799Z,101378.09
2019-06-07T00:21:10.009Z,101379.00
2019-06-07T00:23:35.926Z,101378.97
2019-06-07T00:26:01.781Z,101374.28
2019-06-07T00:28:27.658Z,101354.91
2019-06-07T00:30:53.522Z,101357.05
2019-06-07T00:33:24.099Z,101363.84
2019-06-07T00:35:47.143Z,101365.48
2019-06-07T00:38:14.263Z,101371.16
2019-06-07T00:40:40.351Z,101373.35
2019-06-07T00:43:06.276Z,101370.03
2019-06-07T00:45:32.079Z,101367.44
2019-06-07T00:47:57.936Z,101368.45
2019-06-07T00:50:24.359Z,101366.42
2019-06-07T00:55:22.230Z,101364.53
2019-06-07T00:57:46.195Z,101360.88
2019-06-07T01:00:21.453Z,101356.25
2019-06-07T01:02:44.623Z,101367.88
2019-06-07T01:05:15.422Z,101353.38
2019-06-07T01:07:39.291Z,101355.56
2019-06-07T01:10:08.862Z,101344.51
2019-06-07T01:12:34.722Z,101354.08
2019-06-07T01:15:00.580Z,101345.50
2019-06-07T01:17:41.145Z,101350.27
2019-06-07T01:19:56.808Z,101355.25
2019-06-07T01:22:26.929Z,101355.25
2019-06-07T01:24:50.639Z,101347.52
2019-06-07T01:27:18.406Z,101342.09
2019-06-07T01:29:44.522Z,101351.94
2019-06-07T01:32:10.421Z,101342.09
2019-06-07T01:34:36.276Z,101344.35
2019-06-07T01:37:02.135Z,101344.27
2019-06-07T01:39:31.095Z,101340.94
2019-06-07T01:41:55.750Z,101353.44
2019-06-07T01:44:24.182Z,101347.73
2019-06-07T01:46:49.370Z,101341.12
2019-06-07T01:49:15.219Z,101356.09
2019-06-07T01:51:41.131Z,101347.31
2019-06-07T01:54:49.485Z,101342.59
2019-06-07T01:56:34.758Z,101339.88
2019-06-07T01:59:00.600Z,101340.75
2019-06-07T02:01:29.709Z,101338.97
2019-06-07T02:03:54.242Z,101336.84
2019-06-07T02:06:20.983Z,101337.91
2019-06-07T02:08:47.591Z,101343.04
2019-06-07T02:11:13.443Z,101340.29
2019-06-07T02:13:39.308Z,101335.00
2019-06-07T02:16:05.781Z,101335.10
2019-06-07T02:18:34.606Z,101325.00
2019-06-07T02:20:59.355Z,101326.06
2019-06-07T02:23:29.219Z,101322.15
2019-06-07T02:25:52.969Z,101318.23
2019-06-07T02:28:30.083Z,101310.45
2019-06-07T02:30:58.893Z,101309.28
2019-06-07T02:33:14.348Z,101314.42
2019-06-07T02:35:41.227Z,101307.07
2019-06-07T02:38:07.178Z,101294.00
2019-06-07T02:40:37.319Z,101298.77
2019-06-07T02:43:00.787Z,101299.98
2019-06-07T02:45:29.925Z,101299.03
2019-06-07T02:47:54.494Z,101289.61
2019-06-07T02:50:20.355Z,101291.69
2019-06-07T02:52:46.212Z,101284.66
2019-06-07T02:55:12.497Z,101280.48
2019-06-07T02:57:41.779Z,101285.13
2019-06-07T03:00:40.627Z,101276.72
2019-06-07T03:02:41.224Z,101276.04
2019-06-07T03:05:06.136Z,101282.06
2019-06-07T03:07:39.007Z,101273.16
2019-06-07T03:10:04.976Z,101277.13
2019-06-07T03:12:33.539Z,101268.88
2019-06-07T03:14:59.559Z,101261.07
2019-06-07T03:17:38.894Z,101263.56
2019-06-07T03:20:07.046Z,101258.89
2019-06-07T03:22:38.964Z,101261.59
2019-06-07T03:25:03.070Z,101264.81
2019-06-07T03:27:36.023Z,101260.22
2019-06-07T03:29:56.904Z,101255.94
2019-06-07T03:32:22.775Z,101252.02
2019-06-07T03:34:48.627Z,101255.87
2019-06-07T03:37:14.485Z,101253.48
2019-06-07T03:39:41.206Z,101244.73
2019-06-07T03:42:08.569Z,101241.39
2019-06-07T03:44:36.404Z,101242.81
2019-06-07T03:47:02.334Z,101248.75
2019-06-07T03:49:30.657Z,101243.41
2019-06-07T03:51:55.936Z,101248.38
2019-06-07T03:54:21.799Z,101247.89
2019-06-07T03:56:47.658Z,101240.91
2019-06-07T03:59:13.510Z,101232.72
2019-06-07T04:01:41.190Z,101236.16
2019-06-07T04:04:07.126Z,101238.49
2019-06-07T04:06:36.150Z,101231.40
2019-06-07T04:09:00.774Z,101236.11
2019-06-07T04:11:27.546Z,101221.98
2019-06-07T04:13:53.672Z,101220.61
2019-06-07T04:16:19.546Z,101231.30
2019-06-07T04:18:45.399Z,101216.64
2019-06-07T04:21:11.250Z,101213.69
2019-06-07T04:23:44.719Z,101210.31
2019-06-07T04:26:04.887Z,101204.97
2019-06-07T04:29:27.416Z,101201.49
2019-06-07T04:30:58.616Z,101196.67
2019-06-07T04:33:24.770Z,101194.02
2019-06-07T04:35:53.330Z,101182.27
2019-06-07T04:38:20.279Z,101192.75
2019-06-07T04:40:47.063Z,101197.40
2019-06-07T04:43:13.200Z,101188.83
2019-06-07T04:45:45.864Z,101188.61
2019-06-07T04:48:07.518Z,101175.55
2019-06-07T04:50:36.169Z,101182.39
2019-06-07T04:53:02.537Z,101162.05
2019-06-07T04:55:29.074Z,101161.64
2019-06-07T04:57:55.552Z,101161.52
2019-06-07T05:00:49.878Z,101152.42
2019-06-07T05:03:04.151Z,101167.86
2019-06-07T05:05:31.853Z,101159.83
2019-06-07T05:08:07.208Z,101154.30
2019-06-07T05:10:30.578Z,101137.02
2019-06-07T05:12:56.232Z,101146.41
2019-06-07T05:15:22.184Z,101156.20
2019-06-07T05:17:48.634Z,101172.66
2019-06-07T05:20:16.127Z,101176.88
2019-06-07T05:22:45.107Z,101176.01
2019-06-07T05:25:10.044Z,101163.73
2019-06-07T05:27:38.658Z,101145.70
2019-06-07T05:30:36.071Z,101135.59
2019-06-07T05:32:34.972Z,101146.41
2019-06-07T05:35:00.962Z,101149.23
2019-06-07T05:37:26.807Z,101141.30
2019-06-07T05:39:52.668Z,101144.77
2019-06-07T05:42:18.737Z,101144.48
2019-06-07T05:44:45.828Z,101142.94
2019-06-07T05:47:11.817Z,101130.86
2019-06-07T05:49:39.577Z,101128.64
2019-06-07T05:52:05.453Z,101123.61
2019-06-07T05:54:34.674Z,101125.70
2019-06-07T05:56:59.103Z,101124.27
2019-06-07T05:59:24.961Z,101122.88
2019-06-07T06:02:01.977Z,101129.09
2019-06-07T06:04:18.731Z,101120.61
2019-06-07T06:06:47.047Z,101116.08
2019-06-07T06:09:14.173Z,101123.38
2019-06-07T06:11:55.270Z,101112.05
2019-06-07T06:14:08.870Z,101119.33
2019-06-07T06:16:34.828Z,101094.78
2019-06-07T06:19:00.704Z,101094.97
2019-06-07T06:21:26.561Z,101096.03
2019-06-07T06:23:54.051Z,101091.38
2019-06-07T06:26:20.097Z,101101.70
2019-06-07T06:28:45.954Z,101100.46
2019-06-07T06:31:11.829Z,101094.23
2019-06-07T06:33:37.731Z,101094.00
2019-06-07T06:36:03.589Z,101097.98
2019-06-07T06:38:29.447Z,101090.98
2019-06-07T06:41:14.283Z,101088.45
2019-06-07T06:43:23.166Z,101087.53
2019-06-07T06:45:50.621Z,101095.70
2019-06-07T06:48:16.692Z,101088.61
2019-06-07T06:50:44.411Z,101090.29
2019-06-07T06:53:10.301Z,101089.91
2019-06-07T06:55:36.181Z,101082.38
2019-06-07T06:58:02.125Z,101083.47
2019-06-07T07:00:53.479Z,101059.19
2019-06-07T07:05:43.368Z,101057.09
2019-06-07T07:08:09.758Z,101050.69
2019-06-07T07:10:38.922Z,101057.05
2019-06-07T07:13:04.898Z,101046.74
2019-06-07T07:15:30.764Z,101041.30
2019-06-07T07:18:07.985Z,101041.98
2019-06-07T07:20:24.616Z,101035.17
2019-06-07T07:22:56.263Z,101030.95
2019-06-07T07:25:18.654Z,101025.37
2019-06-07T07:27:44.835Z,100979.47
2019-06-07T07:32:40.644Z,101020.61
2019-06-07T07:35:06.715Z,101024.47
2019-06-07T07:37:32.558Z,101014.48
2019-06-07T07:40:09.656Z,101015.22
2019-06-07T07:42:26.215Z,101013.16
2019-06-07T07:44:55.123Z,101001.95
2019-06-07T07:47:19.847Z,101001.70
2019-06-07T07:49:48.372Z,100997.50
2019-06-07T07:52:13.496Z,100990.36
2019-06-07T07:54:39.371Z,100994.77
2019-06-07T07:57:05.223Z,100976.95
2019-06-07T07:59:41.829Z,100970.05
2019-06-07T08:01:58.889Z,100960.46
2019-06-07T08:05:12.174Z,100963.38
2019-06-07T08:06:55.675Z,100970.39
2019-06-07T08:09:20.300Z,100969.16
2019-06-07T08:11:47.736Z,100960.02
2019-06-07T08:14:13.935Z,100957.05
2019-06-07T08:16:39.791Z,100949.20
2019-06-07T08:19:05.779Z,100941.41
2019-06-07T08:21:31.749Z,100927.09
2019-06-07T08:24:01.454Z,100923.31
2019-06-07T08:26:27.373Z,100922.16
2019-06-07T08:28:56.954Z,100920.93
2019-06-07T08:31:20.982Z,100929.30
2019-06-07T08:33:47.772Z,100913.94
2019-06-07T08:36:20.265Z,100921.00
2019-06-07T08:38:47.982Z,100905.47
2019-06-07T08:41:12.254Z,100901.37
2019-06-07T08:43:37.644Z,100900.52
2019-06-07T08:46:07.288Z,100904.71
2019-06-07T08:48:31.497Z,100899.64
2019-06-07T08:51:02.258Z,100906.59
2019-06-07T08:53:25.151Z,100889.89
2019-06-07T08:55:54.232Z,100879.31
2019-06-07T08:58:18.842Z,100865.44
2019-06-07T09:00:47.219Z,100865.30
2019-06-07T09:03:12.490Z,100872.34
2019-06-07T09:05:38.566Z,100858.75
2019-06-07T09:08:28.252Z,100859.16
2019-06-07T09:10:32.824Z,100865.98
2019-06-07T09:13:03.165Z,100854.68
2019-06-07T09:15:27.390Z,100848.19
2019-06-07T09:18:34.981Z,100848.95
2019-06-07T09:20:36.268Z,100834.27
2019-06-07T09:22:49.964Z,100825.38
2019-06-07T09:25:20.874Z,100828.17
2019-06-07T09:27:43.894Z,100831.95
2019-06-07T09:30:16.250Z,100845.05
2019-06-07T09:32:38.530Z,100847.21
2019-06-07T09:35:12.412Z,100834.33
2019-06-07T09:38:10.919Z,100823.09
2019-06-07T09:40:17.423Z,100810.91
2019-06-07T09:42:29.335Z,100804.53
2019-06-07T09:44:57.342Z,100805.58
2019-06-07T09:47:32.350Z,100806.97
2019-06-07T09:49:50.711Z,100803.16
2019-06-07T09:52:16.594Z,100796.06
2019-06-07T09:55:06.138Z,100806.04
2019-06-07T09:57:16.615Z,100792.58
2019-06-07T09:59:37.992Z,100784.55
2019-06-07T10:02:06.346Z,100787.50
2019-06-07T10:04:31.816Z,100790.50
2019-06-07T10:07:04.039Z,100804.09
2019-06-07T10:10:08.614Z,100799.66
2019-06-07T10:11:53.459Z,100793.62
2019-06-07T10:14:19.324Z,100767.59
2019-06-07T10:16:46.777Z,100778.31
2019-06-07T10:19:12.952Z,100759.97
2019-06-07T10:21:38.815Z,100759.33
2019-06-07T10:24:05.576Z,100749.20
2019-06-07T10:26:31.661Z,100740.64
2019-06-07T10:28:57.526Z,100751.87
2019-06-07T10:31:23.384Z,100741.47
2019-06-07T10:33:49.233Z,100740.90
2019-06-07T10:36:15.098Z,100721.56
2019-06-07T10:38:41.068Z,100723.47
2019-06-07T10:41:06.922Z,100722.92
2019-06-07T10:43:32.782Z,100727.92
2019-06-07T10:45:58.757Z,100710.77
2019-06-07T10:48:25.175Z,100702.28
2019-06-07T10:50:51.176Z,100703.87
2019-06-07T10:53:17.040Z,100690.41
2019-06-07T10:55:42.906Z,100685.51
2019-06-07T10:58:09.152Z,100687.56
2019-06-07T11:00:35.129Z,100669.58
2019-06-07T11:03:01.184Z,100674.98
2019-06-07T11:05:27.147Z,100668.06
2019-06-07T11:07:53.008Z,100678.59
2019-06-07T11:10:20.269Z,100660.34
2019-06-07T11:12:46.502Z,100670.36
2019-06-07T11:15:12.971Z,100666.83
2019-06-07T11:17:39.008Z,100655.39
2019-06-07T11:20:06.084Z,100659.94
2019-06-07T11:22:32.209Z,100655.74
2019-06-07T11:24:58.117Z,100642.64
2019-06-07T11:27:23.993Z,100641.87
2019-06-07T11:29:49.971Z,100648.77
2019-06-07T11:32:15.816Z,100641.92
2019-06-07T11:34:41.749Z,100635.24
2019-06-07T11:37:09.323Z,100646.83
2019-06-07T11:39:35.443Z,100630.66
2019-06-07T11:42:01.318Z,100631.63
2019-06-07T11:44:27.297Z,100622.38
2019-06-07T11:46:53.243Z,100617.36
2019-06-07T11:49:21.733Z,100606.54
2019-06-07T11:51:47.095Z,100603.25
2019-06-07T11:54:13.977Z,100587.53
2019-06-07T11:56:40.073Z,100598.97
2019-06-07T11:59:07.005Z,100583.11
2019-06-07T12:01:33.019Z,100593.34
2019-06-07T12:03:59.024Z,100578.23
2019-06-07T12:06:24.939Z,100565.63
2019-06-07T12:08:50.840Z,100560.05
2019-06-07T12:11:16.711Z,100563.75
2019-06-07T12:13:42.579Z,100561.13
2019-06-07T12:16:09.077Z,100550.75
2019-06-07T12:18:35.921Z,100545.75
2019-06-07T12:21:01.942Z,100519.75
2019-06-07T12:23:27.840Z,100540.74
2019-06-07T12:25:53.714Z,100528.25
2019-06-07T12:28:20.928Z,100521.61
2019-06-07T12:30:46.860Z,100527.02
2019-06-07T12:33:13.430Z,100536.97
2019-06-07T12:35:39.826Z,100530.66
2019-06-07T12:38:05.763Z,100542.69
2019-06-07T12:40:32.380Z,100546.09
2019-06-07T12:42:58.499Z,100544.17
2019-06-07T12:45:43.951Z,100539.48
2019-06-07T12:47:52.257Z,100531.27
2019-06-07T12:50:19.491Z,100535.30
2019-06-07T12:52:45.768Z,100542.52
2019-06-07T12:55:13.778Z,100547.33
2019-06-07T12:57:39.838Z,100542.94
2019-06-07T13:00:09.984Z,100550.20
2019-06-07T13:02:35.943Z,100553.47
2019-06-07T13:05:05.962Z,100539.52
2019-06-07T13:07:31.874Z,100543.53
2019-06-07T13:09:57.806Z,100548.09
2019-06-07T13:12:23.840Z,100544.38
2019-06-07T13:14:49.748Z,100540.06
2019-06-07T13:17:15.979Z,100524.93
2019-06-07T13:19:41.968Z,100531.83
2019-06-07T13:22:07.890Z,100525.25
2019-06-07T13:24:33.773Z,100529.44
2019-06-07T13:26:59.791Z,100524.84
2019-06-07T13:29:29.461Z,100524.78
2019-06-07T13:31:53.565Z,100515.17
2019-06-07T13:34:20.554Z,100513.85
2019-06-07T13:36:46.486Z,100506.83
2019-06-07T13:39:12.385Z,100501.45
2019-06-07T13:41:42.823Z,100509.82
2019-06-07T13:44:06.063Z,100504.72
2019-06-07T13:46:31.987Z,100507.87
2019-06-07T13:48:57.909Z,100512.38
2019-06-07T13:51:25.144Z,100511.68
2019-06-07T13:53:51.604Z,100517.82
2019-06-07T13:56:17.820Z,100515.80
2019-06-07T13:58:43.771Z,100519.34
2019-06-07T14:01:09.708Z,100522.30
2019-06-07T14:03:35.576Z,100526.64
2019-06-07T14:06:02.003Z,100529.98
2019-06-07T14:08:30.754Z,100527.27
2019-06-07T14:10:56.716Z,100522.16
2019-06-07T14:13:23.645Z,100531.14
2019-06-07T14:15:49.726Z,100525.29
2019-06-07T14:18:15.664Z,100535.23
2019-06-07T14:20:44.461Z,100541.74
2019-06-07T14:23:13.280Z,100544.43
2019-06-07T14:25:40.435Z,100546.36
2019-06-07T14:28:11.349Z,100533.67
2019-06-07T14:30:34.082Z,100543.11
2019-06-07T14:33:00.038Z,100544.22
2019-06-07T14:35:28.883Z,100550.09
2019-06-07T14:37:54.790Z,100558.92
2019-06-07T14:40:20.754Z,100565.03
2019-06-07T14:42:48.556Z,100564.45
2019-06-07T14:45:14.906Z,100565.45
2019-06-07T14:47:40.874Z,100568.16
2019-06-07T14:50:09.530Z,100577.39
2019-06-07T14:52:35.423Z,100586.24
2019-06-07T14:55:01.328Z,100596.16
2019-06-07T14:57:27.168Z,100617.05
2019-06-07T14:59:53.240Z,100625.97
2019-06-07T15:02:19.172Z,100642.97
2019-06-07T15:04:45.715Z,100642.97
2019-06-07T15:07:14.983Z,100650.87
2019-06-07T15:09:41.728Z,100650.87
2019-06-07T15:12:07.579Z,100661.61
2019-06-07T15:14:33.514Z,100659.00
2019-06-07T15:16:59.421Z,100668.74
2019-06-07T15:19:26.502Z,100679.75
2019-06-07T15:21:52.546Z,100683.38
2019-06-07T15:24:18.618Z,100681.16
2019-06-07T15:26:44.550Z,100670.27
2019-06-07T15:29:10.412Z,100672.59
2019-06-07T15:31:38.466Z,100667.77
2019-06-07T15:34:04.446Z,100673.34
2019-06-07T15:36:30.296Z,100673.23
2019-06-07T15:38:56.155Z,100684.90
2019-06-07T15:41:22.040Z,100687.03
2019-06-07T15:43:47.987Z,100697.09
2019-06-07T15:46:13.806Z,100696.75
2019-06-07T15:48:40.194Z,100707.55
2019-06-07T15:51:06.177Z,100705.44
2019-06-07T15:53:36.249Z,100710.86
2019-06-07T15:55:59.897Z,100708.66
2019-06-07T15:58:25.779Z,100713.91
2019-06-07T16:00:51.680Z,100717.62
2019-06-07T16:03:17.579Z,100728.97
2019-06-07T16:05:43.547Z,100707.97
2019-06-07T16:08:09.486Z,100703.59
2019-06-07T16:10:36.822Z,100706.01
2019-06-07T16:13:03.011Z,100702.86
2019-06-07T16:15:29.946Z,100708.55
2019-06-07T16:17:55.807Z,100722.26
2019-06-07T16:20:21.685Z,100711.41
2019-06-07T16:22:47.563Z,100721.73
2019-06-07T16:25:14.081Z,100726.41
2019-06-07T16:27:40.599Z,100733.80
2019-06-07T16:30:09.669Z,100737.86
2019-06-07T16:32:37.151Z,100712.88
2019-06-07T16:35:06.080Z,100738.19
2019-06-07T16:37:31.982Z,100727.36
2019-06-07T16:39:57.986Z,100728.50
2019-06-07T16:42:23.798Z,100736.58
2019-06-07T16:44:49.681Z,100752.89
2019-06-07T16:47:15.569Z,100757.41
2019-06-07T16:49:42.862Z,100749.78
2019-06-07T16:52:09.011Z,100732.23
2019-06-07T16:54:35.660Z,100684.41
2019-06-07T16:57:01.829Z,100693.11
2019-06-07T16:59:27.724Z,100684.30
2019-06-07T17:01:53.579Z,100702.97
2019-06-07T17:04:19.444Z,100708.88
2019-06-07T17:06:46.454Z,100696.52
2019-06-07T17:09:12.381Z,100682.23
2019-06-07T17:11:38.283Z,100653.83
2019-06-07T17:14:04.147Z,100592.72
2019-06-07T17:16:30.038Z,100587.77
2019-06-07T17:18:55.910Z,100676.67
2019-06-07T17:21:22.588Z,100677.89
2019-06-07T17:23:49.443Z,100668.34
2019-06-07T17:26:15.401Z,100674.50
2019-06-07T17:28:41.797Z,100677.38
2019-06-07T17:31:07.747Z,100665.89
2019-06-07T17:33:33.714Z,100677.27
2019-06-07T17:35:59.574Z,100676.09
2019-06-07T17:38:27.330Z,100676.72
2019-06-07T17:40:53.186Z,100667.72
2019-06-07T17:43:19.071Z,100681.48
2019-06-07T17:45:45.444Z,100670.65
2019-06-07T17:48:11.429Z,100683.48
2019-06-07T17:50:37.302Z,100668.67
2019-06-07T17:53:03.401Z,100666.36
2019-06-07T17:55:29.282Z,100652.30
2019-06-07T17:57:55.132Z,100664.27
2019-06-07T18:00:29.429Z,100657.46
2019-06-07T18:02:50.914Z,100651.34
2019-06-07T18:05:17.472Z,100662.98
2019-06-07T18:07:47.611Z,100664.67
2019-06-07T18:10:17.427Z,100657.17
2019-06-07T18:12:43.976Z,100647.20
2019-06-07T18:15:10.631Z,100636.52
2019-06-07T18:17:36.632Z,100647.54
2019-06-07T18:20:06.864Z,100643.93
2019-06-07T18:22:33.551Z,100656.97
2019-06-07T18:24:59.411Z,100648.83
2019-06-07T18:27:25.252Z,100661.86
2019-06-07T18:29:51.108Z,100655.30
2019-06-07T18:32:16.976Z,100664.03
2019-06-07T18:34:43.253Z,100659.98
2019-06-07T18:37:09.123Z,100664.78
2019-06-07T18:39:34.997Z,100662.01
2019-06-07T18:42:00.877Z,100680.23
2019-06-07T18:44:26.743Z,100678.86
2019-06-07T18:46:52.627Z,100679.39
2019-06-07T18:49:18.738Z,100684.82
2019-06-07T18:51:47.419Z,100670.31
2019-06-07T18:54:13.351Z,100677.37
2019-06-07T18:56:39.319Z,100685.27
2019-06-07T18:59:05.179Z,100682.30
2019-06-07T19:01:31.076Z,100674.84
2019-06-07T19:03:58.186Z,100678.91
2019-06-07T19:06:24.087Z,100685.95
2019-06-07T19:08:52.267Z,100670.52
2019-06-07T19:11:17.698Z,100674.00
2019-06-07T19:13:43.550Z,100670.31
2019-06-07T19:16:09.416Z,100675.22
2019-06-07T19:18:35.293Z,100664.23
2019-06-07T19:21:01.140Z,100657.52
2019-06-07T19:23:27.018Z,100658.74
2019-06-07T19:25:54.204Z,100658.20
2019-06-07T19:28:20.249Z,100645.72
2019-06-07T19:30:46.139Z,100641.27
2019-06-07T19:33:12.011Z,100637.12
2019-06-07T19:35:38.139Z,100630.16
2019-06-07T19:38:04.178Z,100630.04
2019-06-07T19:40:30.036Z,100639.16
2019-06-07T19:42:56.431Z,100631.40
2019-06-07T19:45:31.466Z,100625.83
2019-06-07T19:47:50.536Z,100621.45
2019-06-07T19:50:16.998Z,100625.89
2019-06-07T19:52:42.850Z,100629.27
2019-06-07T19:55:10.283Z,100623.61
2019-06-07T19:57:36.701Z,100624.23
2019-06-07T20:00:13.573Z,100626.51
2019-06-07T20:02:34.591Z,100636.71
2019-06-07T20:05:04.589Z,100641.55
2019-06-07T20:07:28.298Z,100647.77
2019-06-07T20:09:54.500Z,100656.50
2019-06-07T20:12:20.456Z,100668.95
2019-06-07T20:14:46.356Z,100662.55
2019-06-07T20:17:12.226Z,100667.06
2019-06-07T20:19:38.085Z,100664.34
2019-06-07T20:22:05.397Z,100681.84
2019-06-07T20:24:31.690Z,100678.83
2019-06-07T20:26:58.249Z,100670.05
2019-06-07T20:29:26.317Z,100679.30
2019-06-07T20:31:51.938Z,100689.66
2019-06-07T20:34:18.003Z,100694.02
2019-06-07T20:36:45.921Z,100676.57
2019-06-07T20:39:11.632Z,100671.92
2019-06-07T20:41:37.701Z,100683.53
2019-06-07T20:44:03.816Z,100673.77
2019-06-07T20:46:29.625Z,100671.70
2019-06-07T20:48:55.517Z,100665.00
2019-06-07T20:51:21.376Z,100665.00
2019-06-07T20:53:47.243Z,100664.34
2019-06-07T20:56:13.114Z,100647.64
2019-06-07T20:58:38.961Z,100649.42
2019-06-07T21:01:04.888Z,100650.59
2019-06-07T21:03:30.760Z,100646.07
2019-06-07T21:05:56.583Z,100643.59
2019-06-07T21:08:22.693Z,100640.67
2019-06-07T21:10:48.534Z,100647.64
2019-06-07T21:13:14.390Z,100643.03
2019-06-07T21:15:48.695Z,100633.06
2019-06-07T21:18:16.174Z,100624.25
2019-06-07T21:20:35.808Z,100624.98
2019-06-07T21:23:02.790Z,100622.61
2019-06-07T21:25:28.813Z,100624.29
2019-06-07T21:27:54.674Z,100629.73
2019-06-07T21:30:20.526Z,100621.56
2019-06-07T21:32:46.397Z,100610.97
2019-06-07T21:35:12.755Z,100611.30
2019-06-07T21:37:38.623Z,100604.23
2019-06-07T21:40:06.021Z,100604.00
2019-06-07T21:42:32.027Z,100603.80
2019-06-07T21:44:57.869Z,100599.06
2019-06-07T21:47:23.743Z,100587.31
2019-06-07T21:49:49.615Z,100603.89
2019-06-07T21:52:15.475Z,100603.13
2019-06-07T21:54:41.486Z,100600.01
2019-06-07T21:57:07.363Z,100601.74
2019-06-07T21:59:33.213Z,100596.97
2019-06-07T22:01:59.119Z,100605.88
2019-06-07T22:04:25.009Z,100611.28
2019-06-07T22:06:50.867Z,100614.31
2019-06-07T22:09:16.740Z,100612.02
2019-06-07T22:11:42.591Z,100617.23
2019-06-07T22:14:08.541Z,100625.63
2019-06-07T22:16:34.405Z,100629.50
2019-06-07T22:19:00.268Z,100629.08
2019-06-07T22:21:26.133Z,100634.61
2019-06-07T22:23:52.003Z,100635.52
2019-06-07T22:26:17.970Z,100645.62
2019-06-07T22:28:43.820Z,100640.21
2019-06-07T22:31:10.727Z,100647.42
2019-06-07T22:33:36.785Z,100637.45
2019-06-07T22:36:02.846Z,100652.22
2019-06-07T22:38:28.711Z,100651.72
2019-06-07T22:40:54.576Z,100655.91
2019-06-07T22:43:21.118Z,100653.26
2019-06-07T22:45:46.914Z,100655.98
2019-06-07T22:48:13.427Z,100653.86
2019-06-07T22:50:39.337Z,100663.73
2019-06-07T22:53:05.204Z,100665.69
2019-06-07T22:55:31.083Z,100661.09
2019-06-07T22:57:59.863Z,100663.73
2019-06-07T23:00:27.918Z,100680.11
2019-06-07T23:02:54.082Z,100677.73
2019-06-07T23:05:19.947Z,100671.52
2019-06-07T23:07:45.812Z,100672.67
2019-06-07T23:10:13.309Z,100669.75
2019-06-07T23:12:39.258Z,100674.16
2019-06-07T23:15:06.117Z,100690.47
2019-06-07T23:17:31.996Z,100682.37
2019-06-07T23:19:57.864Z,100685.63
2019-06-07T23:22:23.717Z,100687.32
2019-06-07T23:24:49.583Z,100684.31
2019-06-07T23:27:16.437Z,100692.16
2019-06-07T23:29:42.484Z,100684.25
2019-06-07T23:32:08.349Z,100676.47
2019-06-07T23:34:34.206Z,100670.67
2019-06-07T23:37:00.971Z,100667.67
2019-06-07T23:39:26.822Z,100677.87
2019-06-07T23:41:52.680Z,100672.73
2019-06-07T23:44:19.336Z,100648.88
2019-06-07T23:46:45.209Z,100657.67
2019-06-07T23:49:11.908Z,100680.74
2019-06-07T23:51:37.863Z,100668.22
2019-06-07T23:54:03.913Z,100656.70
2019-06-07T23:56:29.796Z,100662.58
2019-06-07T23:58:56.667Z,100673.39
